createdAt,value
2017-04-27T00:01:06.844Z,70.50
2017-04-27T00:03:35.768Z,70.50
2017-04-27T00:06:04.664Z,70.50
2017-04-27T00:08:33.579Z,70.70
2017-04-27T00:11:02.473Z,70.40
2017-04-27T00:13:32.136Z,70.90
2017-04-27T00:16:01.034Z,70.70
2017-04-27T00:18:29.927Z,71.00
2017-04-27T00:20:58.837Z,70.80
2017-04-27T00:23:27.725Z,70.70
2017-04-27T00:25:56.654Z,70.60
2017-04-27T00:28:25.548Z,69.80
2017-04-27T00:30:55.184Z,70.20
2017-04-27T00:33:24.112Z,70.70
2017-04-27T00:35:53.007Z,70.80
2017-04-27T00:38:21.886Z,70.60
2017-04-27T00:40:50.810Z,71.00
2017-04-27T00:43:20.437Z,71.00
2017-04-27T00:45:49.328Z,71.30
2017-04-27T00:48:18.233Z,71.30
2017-04-27T00:50:47.134Z,71.30
2017-04-27T00:53:16.153Z,71.70
2017-04-27T00:55:45.050Z,72.20
2017-04-27T00:58:13.936Z,72.30
2017-04-27T01:00:42.861Z,72.20
2017-04-27T01:03:12.488Z,72.00
2017-04-27T01:05:41.414Z,72.50
2017-04-27T01:08:10.300Z,72.10
2017-04-27T01:10:39.279Z,72.10
2017-04-27T01:13:08.206Z,72.40
2017-04-27T01:15:37.094Z,72.70
2017-04-27T01:18:05.985Z,72.60
2017-04-27T01:20:34.922Z,73.00
2017-04-27T01:23:03.812Z,73.30
2017-04-27T01:25:32.703Z,73.40
2017-04-27T01:28:01.622Z,73.20
2017-04-27T01:30:30.516Z,72.80
2017-04-27T01:32:59.442Z,71.90
2017-04-27T01:35:28.329Z,71.80
2017-04-27T01:37:57.217Z,71.40
2017-04-27T01:40:26.149Z,70.60
2017-04-27T01:42:55.038Z,71.90
2017-04-27T01:45:23.932Z,72.30
2017-04-27T01:47:53.158Z,73.10
2017-04-27T01:50:22.049Z,73.40
2017-04-27T01:52:50.939Z,74.50
2017-04-27T01:55:19.860Z,75.60
2017-04-27T01:57:48.759Z,76.40
2017-04-27T02:00:17.777Z,75.80
2017-04-27T02:02:47.400Z,75.80
2017-04-27T02:05:16.290Z,77.00
2017-04-27T02:07:45.302Z,77.30
2017-04-27T02:10:14.195Z,76.90
2017-04-27T02:12:43.086Z,76.30
2017-04-27T02:15:11.997Z,77.20
2017-04-27T02:17:40.881Z,77.10
2017-04-27T02:20:09.807Z,76.90
2017-04-27T02:22:39.437Z,77.30
2017-04-27T02:25:08.330Z,76.50
2017-04-27T02:27:37.399Z,76.30
2017-04-27T02:30:06.312Z,76.40
2017-04-27T02:32:35.197Z,77.20
2017-04-27T02:35:04.220Z,77.90
2017-04-27T02:37:33.141Z,79.60
2017-04-27T02:40:02.033Z,79.60
2017-04-27T02:42:30.954Z,80.60
2017-04-27T02:45:00.584Z,81.30
2017-04-27T02:47:29.473Z,78.70
2017-04-27T02:49:58.453Z,79.80
2017-04-27T02:52:27.349Z,79.10
2017-04-27T02:54:56.242Z,79.90
2017-04-27T02:57:25.171Z,78.00
2017-04-27T02:59:54.066Z,78.70
2017-04-27T03:02:22.957Z,77.70
2017-04-27T03:04:51.886Z,77.90
2017-04-27T03:07:20.772Z,78.60
2017-04-27T03:09:49.693Z,78.40
2017-04-27T03:12:18.713Z,79.10
2017-04-27T03:14:47.601Z,77.70
2017-04-27T03:17:16.493Z,78.00
2017-04-27T03:19:45.410Z,77.90
2017-04-27T03:22:14.306Z,77.30
2017-04-27T03:24:43.197Z,77.90
2017-04-27T03:27:12.113Z,78.60
2017-04-27T03:29:41.745Z,79.20
2017-04-27T03:32:10.630Z,78.50
2017-04-27T03:34:39.567Z,78.20
2017-04-27T03:37:08.472Z,78.80
2017-04-27T03:39:37.375Z,79.00
2017-04-27T03:42:07.138Z,80.00
2017-04-27T03:44:36.025Z,78.70
2017-04-27T03:47:04.918Z,78.70
2017-04-27T03:49:33.830Z,79.20
2017-04-27T03:52:02.846Z,80.10
2017-04-27T03:54:31.717Z,79.40
2017-04-27T03:57:00.609Z,79.60
2017-04-27T03:59:29.633Z,79.80
2017-04-27T04:01:59.264Z,79.40
2017-04-27T04:04:28.549Z,79.30
2017-04-27T04:06:57.575Z,79.50
2017-04-27T04:09:26.466Z,79.30
2017-04-27T04:11:55.358Z,80.20
2017-04-27T04:14:24.374Z,79.90
2017-04-27T04:16:54.151Z,79.80
2017-04-27T04:19:23.066Z,80.70
2017-04-27T04:21:52.009Z,80.10
2017-04-27T04:24:21.649Z,80.50
2017-04-27T04:26:50.537Z,81.60
2017-04-27T04:29:19.469Z,81.20
2017-04-27T04:31:48.369Z,81.30
2017-04-27T04:34:17.294Z,82.50
2017-04-27T04:36:46.182Z,81.90
2017-04-27T04:39:15.813Z,82.00
2017-04-27T04:41:44.742Z,82.00
2017-04-27T04:44:13.631Z,82.00
2017-04-27T04:46:42.522Z,82.60
2017-04-27T04:49:11.613Z,82.20
2017-04-27T04:51:40.589Z,82.30
2017-04-27T04:54:09.509Z,83.20
2017-04-27T04:56:38.516Z,82.10
2017-04-27T04:59:08.153Z,81.90
2017-04-27T05:01:37.041Z,83.90
2017-04-27T05:04:05.961Z,83.00
2017-04-27T05:06:34.844Z,83.20
2017-04-27T05:09:03.735Z,83.60
2017-04-27T05:11:32.659Z,83.00
2017-04-27T05:14:01.545Z,83.30
2017-04-27T05:16:30.425Z,83.80
2017-04-27T05:18:59.605Z,84.60
2017-04-27T05:21:28.598Z,84.30
2017-04-27T05:23:57.577Z,85.00
2017-04-27T05:26:26.500Z,84.80
2017-04-27T05:28:55.417Z,85.00
2017-04-27T05:31:24.344Z,86.20
2017-04-27T05:36:31.289Z,84.60
2017-04-27T05:39:00.409Z,84.80
2017-04-27T05:41:29.303Z,85.10
2017-04-27T05:43:58.186Z,86.10
2017-04-27T05:46:27.117Z,85.50
2017-04-27T05:48:56.037Z,85.40
2017-04-27T05:51:24.902Z,84.40
2017-04-27T05:53:53.833Z,84.30
2017-04-27T05:56:22.717Z,83.90
2017-04-27T05:58:51.615Z,83.60
2017-04-27T06:01:20.537Z,84.50
2017-04-27T06:03:50.180Z,84.40
2017-04-27T06:06:19.066Z,84.70
2017-04-27T06:08:47.995Z,84.70
2017-04-27T06:11:17.162Z,84.30
2017-04-27T06:13:46.142Z,84.90
2017-04-27T06:16:15.174Z,85.20
2017-04-27T06:18:44.059Z,84.10
2017-04-27T06:21:12.953Z,85.70
2017-04-27T06:23:41.960Z,86.00
2017-04-27T06:26:10.853Z,86.10
2017-04-27T06:28:39.748Z,85.00
2017-04-27T06:31:08.674Z,84.70
2017-04-27T06:33:37.564Z,84.10
2017-04-27T06:36:06.451Z,84.30
2017-04-27T06:38:35.381Z,82.70
2017-04-27T06:41:04.269Z,82.70
2017-04-27T06:43:33.173Z,82.30
2017-04-27T06:46:02.095Z,83.00
2017-04-27T06:48:31.726Z,85.10
2017-04-27T06:51:00.627Z,84.00
2017-04-27T06:53:29.539Z,83.60
2017-04-27T06:55:58.464Z,84.30
2017-04-27T06:58:27.358Z,86.00
2017-04-27T07:00:56.249Z,84.90
2017-04-27T07:03:25.273Z,83.60
2017-04-27T07:05:54.164Z,83.50
2017-04-27T07:08:23.059Z,85.70
2017-04-27T07:10:52.078Z,84.60
2017-04-27T07:13:20.964Z,84.10
2017-04-27T07:15:49.848Z,85.10
2017-04-27T07:18:18.764Z,84.30
2017-04-27T07:20:47.656Z,83.50
2017-04-27T07:23:16.557Z,83.30
2017-04-27T07:25:45.506Z,82.90
2017-04-27T07:28:14.403Z,84.30
2017-04-27T07:30:43.289Z,84.50
2017-04-27T07:33:12.205Z,84.60
2017-04-27T07:35:41.090Z,84.40
2017-04-27T07:38:10.015Z,84.80
2017-04-27T07:40:38.955Z,84.40
2017-04-27T07:43:07.845Z,84.00
2017-04-27T07:45:36.740Z,83.80
2017-04-27T07:48:05.759Z,84.20
2017-04-27T07:50:34.650Z,84.50
2017-04-27T07:53:03.536Z,84.50
2017-04-27T07:55:32.553Z,84.60
2017-04-27T07:58:01.460Z,84.60
2017-04-27T08:00:30.346Z,83.50
2017-04-27T08:02:59.277Z,83.20
2017-04-27T08:05:28.167Z,84.40
2017-04-27T08:07:57.048Z,83.60
2017-04-27T08:10:25.974Z,83.60
2017-04-27T08:12:54.869Z,83.10
2017-04-27T08:15:23.760Z,82.40
2017-04-27T08:17:52.684Z,82.60
2017-04-27T08:20:21.589Z,82.50
2017-04-27T08:22:51.217Z,81.80
2017-04-27T08:25:20.141Z,81.60
2017-04-27T08:27:49.037Z,83.00
2017-04-27T08:30:19.533Z,82.70
2017-04-27T08:32:48.552Z,82.80
2017-04-27T08:35:17.427Z,83.80
2017-04-27T08:37:46.315Z,84.90
2017-04-27T08:40:15.223Z,83.70
2017-04-27T08:42:44.102Z,84.10
2017-04-27T08:45:12.985Z,83.70
2017-04-27T08:47:41.910Z,84.30
2017-04-27T08:50:10.793Z,84.60
2017-04-27T08:52:39.681Z,83.10
2017-04-27T08:55:08.594Z,83.60
2017-04-27T08:57:37.473Z,84.40
2017-04-27T09:00:06.350Z,84.20
2017-04-27T09:02:35.361Z,83.70
2017-04-27T09:05:04.360Z,83.60
2017-04-27T09:07:33.241Z,82.70
2017-04-27T09:10:02.167Z,84.80
2017-04-27T09:12:31.901Z,84.40
2017-04-27T09:15:00.812Z,84.40
2017-04-27T09:17:29.738Z,84.90
2017-04-27T09:19:58.622Z,85.60
2017-04-27T09:22:27.549Z,86.30
2017-04-27T09:24:56.706Z,86.10
2017-04-27T09:27:25.612Z,85.50
2017-04-27T09:29:54.526Z,84.20
2017-04-27T09:32:24.286Z,85.10
2017-04-27T09:34:53.178Z,85.30
2017-04-27T09:37:22.073Z,84.00
2017-04-27T09:39:51.065Z,84.90
2017-04-27T09:42:19.974Z,85.60
2017-04-27T09:44:48.856Z,85.50
2017-04-27T09:47:17.782Z,83.50
2017-04-27T09:49:47.408Z,84.80
2017-04-27T09:52:16.294Z,82.10
2017-04-27T09:54:45.524Z,81.50
2017-04-27T09:57:14.407Z,79.90
2017-04-27T09:59:43.317Z,82.30
2017-04-27T10:02:12.324Z,83.20
2017-04-27T10:04:41.212Z,83.10
2017-04-27T10:07:10.157Z,81.70
2017-04-27T10:09:39.080Z,81.60
2017-04-27T10:12:07.970Z,80.20
2017-04-27T10:14:36.856Z,83.20
2017-04-27T10:17:05.813Z,83.80
2017-04-27T10:19:34.709Z,82.30
2017-04-27T10:22:03.632Z,81.40
2017-04-27T10:24:32.521Z,81.90
2017-04-27T10:27:01.398Z,80.70
2017-04-27T10:29:30.409Z,80.90
2017-04-27T10:31:59.328Z,82.20
2017-04-27T10:34:28.213Z,80.60
2017-04-27T10:36:57.133Z,80.80
2017-04-27T10:39:26.756Z,79.30
2017-04-27T10:41:55.639Z,81.90
2017-04-27T10:44:25.385Z,80.90
2017-04-27T10:46:54.265Z,80.60
2017-04-27T10:49:23.261Z,81.60
2017-04-27T10:51:52.212Z,79.90
2017-04-27T10:54:21.836Z,80.80
2017-04-27T10:56:50.721Z,80.00
2017-04-27T10:59:19.640Z,82.50
2017-04-27T11:01:48.516Z,81.80
2017-04-27T11:04:17.403Z,82.90
2017-04-27T11:06:46.409Z,83.10
2017-04-27T11:09:15.293Z,82.80
2017-04-27T11:11:44.177Z,81.50
2017-04-27T11:14:13.102Z,83.30
2017-04-27T11:16:41.986Z,79.30
2017-04-27T11:19:10.865Z,80.00
2017-04-27T11:21:39.789Z,82.00
2017-04-27T11:24:08.776Z,83.00
2017-04-27T11:26:37.666Z,81.70
2017-04-27T11:29:06.841Z,82.70
2017-04-27T11:31:35.721Z,82.90
2017-04-27T11:34:04.606Z,81.30
2017-04-27T11:36:49.018Z,81.10
2017-04-27T11:39:02.405Z,81.00
2017-04-27T11:41:31.325Z,80.40
2017-04-27T11:44:00.313Z,81.20
2017-04-27T11:46:29.690Z,80.20
2017-04-27T11:48:58.620Z,81.20
2017-04-27T11:51:27.505Z,80.30
2017-04-27T11:53:56.388Z,79.90
2017-04-27T11:56:25.293Z,80.40
2017-04-27T11:58:54.184Z,81.80
2017-04-27T12:01:23.069Z,82.00
2017-04-27T12:03:52.146Z,80.60
2017-04-27T12:06:21.121Z,79.50
2017-04-27T12:08:50.017Z,79.60
2017-04-27T12:11:18.922Z,80.00
2017-04-27T12:13:48.054Z,79.50
2017-04-27T12:16:17.056Z,80.10
2017-04-27T12:18:46.678Z,80.70
2017-04-27T12:21:15.794Z,81.20
2017-04-27T12:23:44.677Z,81.20
2017-04-27T12:26:13.557Z,80.90
2017-04-27T12:28:42.573Z,79.40
2017-04-27T12:31:11.450Z,81.00
2017-04-27T12:33:40.340Z,80.20
2017-04-27T12:36:09.250Z,80.90
2017-04-27T12:38:38.133Z,81.30
2017-04-27T12:41:07.058Z,80.50
2017-04-27T12:43:35.936Z,82.70
2017-04-27T12:46:04.822Z,82.50
2017-04-27T12:48:33.742Z,82.00
2017-04-27T12:51:02.633Z,82.60
2017-04-27T12:53:31.514Z,82.50
2017-04-27T12:56:00.425Z,81.90
2017-04-27T12:58:30.053Z,82.50
2017-04-27T13:00:58.977Z,82.90
2017-04-27T13:03:27.892Z,82.70
2017-04-27T13:05:56.805Z,82.80
2017-04-27T13:08:25.727Z,83.20
2017-04-27T13:10:54.608Z,82.50
2017-04-27T13:13:23.493Z,82.20
2017-04-27T13:15:53.157Z,83.10
2017-04-27T13:18:22.042Z,83.00
2017-04-27T13:20:50.918Z,84.10
2017-04-27T13:23:19.821Z,83.00
2017-04-27T13:25:48.697Z,82.90
2017-04-27T13:28:17.585Z,83.20
2017-04-27T13:30:46.509Z,83.50
2017-04-27T13:33:15.388Z,82.50
2017-04-27T13:35:44.286Z,83.00
2017-04-27T13:38:13.204Z,82.00
2017-04-27T13:40:42.094Z,83.10
2017-04-27T13:43:11.732Z,82.40
2017-04-27T13:45:40.653Z,82.50
2017-04-27T13:48:09.537Z,82.60
2017-04-27T13:50:38.421Z,81.00
2017-04-27T13:53:07.337Z,82.30
2017-04-27T13:55:36.245Z,82.50
2017-04-27T13:58:05.167Z,82.30
2017-04-27T14:00:34.117Z,83.20
2017-04-27T14:03:02.995Z,82.00
2017-04-27T14:05:32.026Z,81.30
2017-04-27T14:08:01.646Z,82.50
2017-04-27T14:10:31.270Z,82.60
2017-04-27T14:13:00.201Z,82.10
2017-04-27T14:15:29.093Z,81.80
2017-04-27T14:17:57.977Z,82.30
2017-04-27T14:20:26.989Z,82.20
2017-04-27T14:22:55.889Z,82.10
2017-04-27T14:25:24.774Z,82.70
2017-04-27T14:27:53.685Z,82.90
2017-04-27T14:30:23.296Z,82.60
2017-04-27T14:32:52.970Z,82.80
2017-04-27T14:35:21.853Z,83.90
2017-04-27T14:37:50.734Z,83.70
2017-04-27T14:40:19.661Z,83.40
2017-04-27T14:42:48.546Z,84.10
2017-04-27T14:45:17.426Z,83.10
2017-04-27T14:47:46.350Z,84.60
2017-04-27T14:50:15.973Z,83.40
2017-04-27T14:52:44.849Z,83.50
2017-04-27T14:55:14.534Z,83.50
2017-04-27T14:57:43.434Z,83.70
2017-04-27T15:00:13.387Z,84.00
2017-04-27T15:02:42.310Z,83.90
2017-04-27T15:05:11.253Z,84.70
2017-04-27T15:07:41.034Z,84.90
2017-04-27T15:10:10.694Z,85.10
2017-04-27T15:12:40.005Z,84.00
2017-04-27T15:15:08.970Z,82.70
2017-04-27T15:17:37.866Z,83.30
2017-04-27T15:20:06.826Z,81.90
2017-04-27T15:22:35.830Z,83.00
2017-04-27T15:25:05.469Z,81.80
2017-04-27T15:27:34.357Z,82.30
2017-04-27T15:30:03.370Z,83.00
2017-04-27T15:32:32.259Z,83.70
2017-04-27T15:35:01.137Z,82.20
2017-04-27T15:37:30.057Z,82.00
2017-04-27T15:39:58.944Z,83.80
2017-04-27T15:42:27.969Z,84.50
2017-04-27T15:44:56.854Z,82.20
2017-04-27T15:47:25.733Z,83.20
2017-04-27T15:49:54.658Z,83.30
2017-04-27T15:52:24.318Z,84.10
2017-04-27T15:54:53.204Z,83.90
2017-04-27T15:57:22.403Z,83.20
2017-04-27T15:59:51.291Z,83.50
2017-04-27T16:02:20.201Z,84.20
2017-04-27T16:04:49.112Z,84.50
2017-04-27T16:07:18.062Z,84.70
2017-04-27T16:09:46.954Z,84.60
2017-04-27T16:12:15.849Z,83.30
2017-04-27T16:14:44.776Z,84.00
2017-04-27T16:17:13.671Z,83.40
2017-04-27T16:19:43.301Z,84.10
2017-04-27T16:22:12.222Z,84.30
2017-04-27T16:24:41.106Z,84.90
2017-04-27T16:27:09.989Z,84.20
2017-04-27T16:29:39.005Z,84.70
2017-04-27T16:32:07.905Z,84.80
2017-04-27T16:34:36.781Z,84.10
2017-04-27T16:37:05.788Z,83.30
2017-04-27T16:39:34.669Z,84.80
2017-04-27T16:42:03.570Z,85.50
2017-04-27T16:44:32.492Z,84.30
2017-04-27T16:47:02.146Z,84.00
2017-04-27T16:49:31.034Z,83.80
2017-04-27T16:52:00.102Z,84.60
2017-04-27T16:54:29.720Z,84.10
2017-04-27T16:56:58.622Z,85.30
2017-04-27T16:59:27.626Z,84.60
2017-04-27T17:01:56.542Z,83.50
2017-04-27T17:04:25.440Z,84.40
2017-04-27T17:06:54.413Z,84.40
2017-04-27T17:09:23.333Z,85.10
2017-04-27T17:11:53.013Z,85.60
2017-04-27T17:14:21.922Z,85.00
2017-04-27T17:16:50.838Z,85.90
2017-04-27T17:19:20.137Z,84.60
2017-04-27T17:21:49.834Z,85.20
2017-04-27T17:24:19.794Z,86.90
2017-04-27T17:26:48.721Z,87.50
2017-04-27T17:29:17.672Z,87.90
2017-04-27T17:31:47.289Z,87.70
2017-04-27T17:34:16.305Z,85.60
2017-04-27T17:36:45.272Z,86.40
2017-04-27T17:39:14.198Z,86.80
2017-04-27T17:41:43.118Z,86.10
2017-04-27T17:44:12.902Z,87.50
2017-04-27T17:46:41.865Z,85.80
2017-04-27T17:49:11.571Z,85.00
2017-04-27T17:51:40.486Z,85.30
2017-04-27T17:54:09.392Z,87.80
2017-04-27T17:56:38.325Z,87.40
2017-04-27T17:59:07.339Z,87.30
2017-04-27T18:01:36.246Z,86.90
2017-04-27T18:04:05.159Z,87.20
2017-04-27T18:06:34.124Z,87.40
2017-04-27T18:09:03.121Z,87.20
2017-04-27T18:11:32.037Z,88.00
2017-04-27T18:14:01.758Z,86.80
2017-04-27T18:16:30.657Z,87.70
2017-04-27T18:19:00.688Z,87.20
2017-04-27T18:21:30.330Z,85.90
2017-04-27T18:23:59.235Z,86.40
2017-04-27T18:26:28.263Z,87.70
2017-04-27T18:28:57.935Z,86.80
2017-04-27T18:31:26.912Z,87.30
2017-04-27T18:33:55.856Z,87.00
2017-04-27T18:36:24.959Z,87.00
2017-04-27T18:38:54.605Z,86.30
2017-04-27T18:41:23.517Z,86.40
2017-04-27T18:43:52.412Z,86.10
2017-04-27T18:46:21.426Z,85.50
2017-04-27T18:48:51.119Z,85.60
2017-04-27T18:51:19.997Z,86.00
2017-04-27T18:53:49.126Z,85.40
2017-04-27T18:56:18.016Z,85.70
2017-04-27T18:58:46.913Z,87.60
2017-04-27T19:01:15.925Z,86.60
2017-04-27T19:03:45.544Z,85.50
2017-04-27T19:06:14.430Z,86.70
2017-04-27T19:08:44.096Z,86.90
2017-04-27T19:11:12.973Z,87.20
2017-04-27T19:13:41.855Z,87.00
2017-04-27T19:16:10.946Z,86.80
2017-04-27T19:18:39.841Z,85.30
2017-04-27T19:21:08.717Z,85.10
2017-04-27T19:23:37.934Z,86.30
2017-04-27T19:26:07.049Z,85.70
2017-04-27T19:28:36.762Z,85.80
2017-04-27T19:31:05.686Z,86.00
2017-04-27T19:33:35.314Z,85.70
2017-04-27T19:36:04.197Z,86.70
2017-04-27T19:38:33.114Z,87.00
2017-04-27T19:41:01.994Z,87.30
2017-04-27T19:43:30.876Z,87.30
2017-04-27T19:45:59.793Z,87.10
2017-04-27T19:48:28.673Z,87.10
2017-04-27T19:50:57.564Z,87.30
2017-04-27T19:53:26.530Z,87.50
2017-04-27T19:55:55.409Z,87.50
2017-04-27T19:58:25.033Z,86.80
2017-04-27T20:00:53.959Z,85.00
2017-04-27T20:03:22.846Z,86.10
2017-04-27T20:05:51.738Z,86.20
2017-04-27T20:08:20.679Z,86.50
2017-04-27T20:10:50.333Z,86.10
2017-04-27T20:13:19.221Z,85.80
2017-04-27T20:15:48.129Z,86.20
2017-04-27T20:18:17.006Z,86.80
2017-04-27T20:20:46.198Z,87.10
2017-04-27T20:23:15.080Z,85.80
2017-04-27T20:25:43.959Z,85.50
2017-04-27T20:28:13.185Z,85.90
2017-04-27T20:30:42.057Z,86.70
2017-04-27T20:33:10.941Z,86.00
2017-04-27T20:35:40.148Z,86.30
2017-04-27T20:38:09.078Z,87.10
2017-04-27T20:40:37.966Z,87.30
2017-04-27T20:43:07.150Z,87.70
2017-04-27T20:45:36.038Z,86.90
2017-04-27T20:48:04.927Z,86.50
2017-04-27T20:50:33.936Z,85.70
2017-04-27T20:53:02.820Z,85.70
2017-04-27T20:55:31.714Z,85.50
2017-04-27T20:58:00.972Z,85.30
2017-04-27T21:00:29.869Z,85.20
2017-04-27T21:02:58.754Z,86.10
2017-04-27T21:05:27.653Z,86.60
2017-04-27T21:07:56.532Z,86.10
2017-04-27T21:10:25.438Z,86.60
2017-04-27T21:12:54.337Z,85.70
2017-04-27T21:15:23.226Z,85.40
2017-04-27T21:17:52.117Z,84.80
2017-04-27T21:20:21.298Z,85.60
2017-04-27T21:22:50.183Z,86.30
2017-04-27T21:25:19.067Z,86.30
2017-04-27T21:27:48.074Z,87.10
2017-04-27T21:30:16.952Z,85.80
2017-04-27T21:32:45.848Z,86.00
2017-04-27T21:35:14.764Z,85.80
2017-04-27T21:37:43.650Z,85.60
2017-04-27T21:40:12.537Z,86.40
2017-04-27T21:42:41.746Z,86.10
2017-04-27T21:45:10.635Z,85.90
2017-04-27T21:47:39.512Z,86.00
2017-04-27T21:50:08.449Z,85.70
2017-04-27T21:52:37.335Z,85.70
2017-04-27T21:55:06.785Z,86.40
2017-04-27T21:57:35.800Z,87.00
2017-04-27T22:00:04.679Z,87.30
2017-04-27T22:02:33.578Z,87.40
2017-04-27T22:05:02.492Z,86.00
2017-04-27T22:07:31.377Z,87.20
2017-04-27T22:10:00.257Z,87.80
2017-04-27T22:12:29.174Z,86.90
2017-04-27T22:14:58.059Z,87.30
2017-04-27T22:17:26.941Z,88.20
2017-04-27T22:19:55.866Z,86.70
2017-04-27T22:22:25.501Z,87.40
2017-04-27T22:24:54.381Z,88.10
2017-04-27T22:27:24.047Z,88.60
2017-04-27T22:29:52.912Z,88.70
2017-04-27T22:32:21.793Z,88.60
2017-04-27T22:34:50.725Z,87.70
2017-04-27T22:37:19.606Z,87.80
2017-04-27T22:39:48.482Z,87.90
2017-04-27T22:42:17.402Z,87.10
2017-04-27T22:44:46.281Z,87.00
2017-04-27T22:47:15.157Z,88.00
2017-04-27T22:49:44.169Z,88.90
2017-04-27T22:52:13.048Z,88.90
2017-04-27T22:54:41.933Z,87.60
2017-04-27T22:57:10.837Z,87.10
2017-04-27T22:59:39.758Z,85.80
2017-04-27T23:02:08.636Z,86.30
2017-04-27T23:04:37.530Z,86.40
2017-04-27T23:07:06.553Z,87.70
2017-04-27T23:09:35.760Z,88.10
2017-04-27T23:12:04.874Z,89.10
2017-04-27T23:14:33.797Z,87.80
2017-04-27T23:17:02.717Z,88.00
2017-04-27T23:19:31.633Z,87.50
2017-04-27T23:22:00.561Z,87.80
2017-04-27T23:24:29.445Z,88.00
2017-04-27T23:26:58.334Z,87.70
2017-04-27T23:29:27.257Z,86.70
2017-04-27T23:31:56.133Z,87.60
2017-04-27T23:34:25.019Z,88.10
2017-04-27T23:36:54.165Z,87.60
2017-04-27T23:39:23.046Z,87.60
2017-04-27T23:41:52.725Z,86.30
2017-04-27T23:44:21.606Z,86.20
2017-04-27T23:46:50.497Z,86.20
2017-04-27T23:49:19.473Z,87.40
2017-04-27T23:51:48.352Z,87.90
2017-04-27T23:54:17.243Z,87.30
2017-04-27T23:56:46.457Z,87.40
2017-04-27T23:59:15.348Z,86.90
